JFA25T EHRD-EGGW
Flight info
| Callsign | JFA25T |
|---|---|
| Flight time | 0h 44m |
| Altitude | 24000 |
| Route | ABNED L980 LOGAN |
| Aircraft | PC24/M-SBDGIRWY/LB2 |
Departure
| Time | 2026-04-30 07:22 |
|---|---|
| Airport | Rotterdam The Hague Airport (EHRD) |
Arrival
| Time | 2026-04-30 08:06 |
|---|---|
| Airport | London Luton Airport (EGGW) |
| Time | Latitude | Longitude | Altitude | Speed | Heading |
|---|---|---|---|---|---|
| 2026-04-30 07:01 | 51.95060 | 4.43805 | -4 ft | 0 kts | 325° |
| 2026-04-30 07:11 | 51.95052 | 4.43814 | -4 ft | 1 kts | 325° |
| 2026-04-30 07:11 | 51.95044 | 4.43823 | -4 ft | 1 kts | 322° |
| 2026-04-30 07:12 | 51.95042 | 4.43838 | -4 ft | 1 kts | 245° |
| 2026-04-30 07:12 | 51.95041 | 4.43835 | -4 ft | 0 kts | 240° |
| 2026-04-30 07:16 | 51.95040 | 4.43833 | -4 ft | 1 kts | 239° |
| 2026-04-30 07:17 | 51.95028 | 4.43806 | -4 ft | 7 kts | 233° |
| 2026-04-30 07:17 | 51.95008 | 4.43689 | -4 ft | 13 kts | 311° |
| 2026-04-30 07:17 | 51.95238 | 4.43430 | -4 ft | 19 kts | 302° |
| 2026-04-30 07:18 | 51.95204 | 4.43302 | -4 ft | 14 kts | 234° |
| 2026-04-30 07:18 | 51.95154 | 4.43151 | -4 ft | 16 kts | 265° |
| 2026-04-30 07:18 | 51.95186 | 4.43098 | -4 ft | 0 kts | 354° |
| 2026-04-30 07:20 | 51.95231 | 4.43095 | -4 ft | 23 kts | 359° |
| 2026-04-30 07:20 | 51.95364 | 4.43208 | -4 ft | 0 kts | 57° |
| 2026-04-30 07:21 | 51.95416 | 4.43339 | -5 ft | 44 kts | 57° |
| 2026-04-30 07:21 | 51.95715 | 4.44114 | -1 ft | 115 kts | 57° |
| 2026-04-30 07:21 | 51.96225 | 4.45331 | 409 ft | 144 kts | 59° |
| 2026-04-30 07:22 | 51.97448 | 4.48523 | 1534 ft | 166 kts | 70° |
| 2026-04-30 07:22 | 51.97984 | 4.50150 | 2038 ft | 172 kts | 60° |
| 2026-04-30 07:22 | 51.98998 | 4.51261 | 2543 ft | 181 kts | 25° |
| 2026-04-30 07:23 | 52.00295 | 4.51302 | 3041 ft | 198 kts | 350° |
| 2026-04-30 07:23 | 52.01444 | 4.49995 | 3544 ft | 213 kts | 310° |
| 2026-04-30 07:23 | 52.01870 | 4.47718 | 4041 ft | 214 kts | 265° |
| 2026-04-30 07:23 | 52.01677 | 4.45322 | 4576 ft | 215 kts | 256° |
| 2026-04-30 07:24 | 52.01395 | 4.42932 | 5097 ft | 213 kts | 249° |
| 2026-04-30 07:24 | 52.00572 | 4.41059 | 5580 ft | 200 kts | 210° |
| 2026-04-30 07:24 | 51.99428 | 4.39734 | 5961 ft | 208 kts | 208° |
| 2026-04-30 07:24 | 51.98258 | 4.38372 | 6079 ft | 204 kts | 209° |
| 2026-04-30 07:25 | 51.97177 | 4.36886 | 6197 ft | 207 kts | 223° |
| 2026-04-30 07:25 | 51.96413 | 4.34872 | 6321 ft | 214 kts | 243° |
| 2026-04-30 07:25 | 51.96053 | 4.32429 | 6413 ft | 240 kts | 259° |
| 2026-04-30 07:25 | 51.95822 | 4.29596 | 6423 ft | 268 kts | 259° |
| 2026-04-30 07:26 | 51.95566 | 4.26516 | 6804 ft | 274 kts | 260° |
| 2026-04-30 07:26 | 51.95306 | 4.23405 | 7761 ft | 283 kts | 259° |
| 2026-04-30 07:26 | 51.95033 | 4.20192 | 8764 ft | 292 kts | 260° |
| 2026-04-30 07:26 | 51.94752 | 4.16882 | 9790 ft | 300 kts | 260° |
| 2026-04-30 07:27 | 51.94466 | 4.13543 | 10772 ft | 307 kts | 260° |
| 2026-04-30 07:27 | 51.94172 | 4.10092 | 11732 ft | 312 kts | 261° |
| 2026-04-30 07:27 | 51.93865 | 4.06582 | 12729 ft | 316 kts | 260° |
| 2026-04-30 07:27 | 51.93514 | 4.03044 | 13755 ft | 319 kts | 259° |
| 2026-04-30 07:28 | 51.93159 | 3.99480 | 14733 ft | 321 kts | 260° |
| 2026-04-30 07:28 | 51.92814 | 3.95891 | 15683 ft | 323 kts | 260° |
| 2026-04-30 07:28 | 51.92466 | 3.92254 | 16504 ft | 331 kts | 260° |
| 2026-04-30 07:28 | 51.92102 | 3.88538 | 17317 ft | 337 kts | 260° |
| 2026-04-30 07:29 | 51.91732 | 3.84755 | 18151 ft | 342 kts | 260° |
| 2026-04-30 07:29 | 51.91357 | 3.80927 | 18955 ft | 346 kts | 260° |
| 2026-04-30 07:29 | 51.90977 | 3.77053 | 19703 ft | 350 kts | 260° |
| 2026-04-30 07:29 | 51.90590 | 3.73139 | 20477 ft | 354 kts | 260° |
| 2026-04-30 07:30 | 51.89802 | 3.65210 | 22073 ft | 359 kts | 260° |
| 2026-04-30 07:30 | 51.89405 | 3.61213 | 22907 ft | 360 kts | 260° |
| 2026-04-30 07:30 | 51.89002 | 3.57207 | 23739 ft | 362 kts | 260° |
| 2026-04-30 07:31 | 51.88594 | 3.53142 | 24219 ft | 372 kts | 260° |
| 2026-04-30 07:31 | 51.88173 | 3.48963 | 24345 ft | 380 kts | 260° |
| 2026-04-30 07:31 | 51.87733 | 3.44622 | 24354 ft | 401 kts | 260° |
| 2026-04-30 07:31 | 51.87271 | 3.40077 | 24361 ft | 415 kts | 260° |
| 2026-04-30 07:32 | 51.86800 | 3.35456 | 24361 ft | 420 kts | 260° |
| 2026-04-30 07:32 | 51.86321 | 3.30781 | 24364 ft | 421 kts | 260° |
| 2026-04-30 07:32 | 51.85840 | 3.26111 | 24362 ft | 422 kts | 260° |
| 2026-04-30 07:32 | 51.85356 | 3.21428 | 24363 ft | 422 kts | 260° |
| 2026-04-30 07:33 | 51.84884 | 3.16740 | 24356 ft | 422 kts | 262° |
| 2026-04-30 07:33 | 51.84579 | 3.12021 | 24360 ft | 422 kts | 264° |
| 2026-04-30 07:33 | 51.84290 | 3.07285 | 24353 ft | 423 kts | 263° |
| 2026-04-30 07:33 | 51.83979 | 3.02553 | 24356 ft | 423 kts | 263° |
| 2026-04-30 07:34 | 51.83661 | 2.97823 | 24352 ft | 423 kts | 263° |
| 2026-04-30 07:34 | 51.83351 | 2.93098 | 24353 ft | 422 kts | 263° |
| 2026-04-30 07:34 | 51.83044 | 2.88380 | 24349 ft | 422 kts | 263° |
| 2026-04-30 07:34 | 51.82731 | 2.83662 | 24348 ft | 422 kts | 263° |
| 2026-04-30 07:35 | 51.82413 | 2.78944 | 24276 ft | 424 kts | 263° |
| 2026-04-30 07:35 | 51.82092 | 2.74200 | 23751 ft | 421 kts | 263° |
| 2026-04-30 07:35 | 51.81778 | 2.69541 | 23176 ft | 414 kts | 263° |
| 2026-04-30 07:35 | 51.81465 | 2.64938 | 22640 ft | 410 kts | 263° |
| 2026-04-30 07:36 | 51.81151 | 2.60370 | 22103 ft | 408 kts | 263° |
| 2026-04-30 07:36 | 51.80841 | 2.55889 | 21570 ft | 405 kts | 262° |
| 2026-04-30 07:36 | 51.80525 | 2.51324 | 21029 ft | 402 kts | 262° |
| 2026-04-30 07:36 | 51.80217 | 2.46917 | 20510 ft | 399 kts | 262° |
| 2026-04-30 07:37 | 51.79906 | 2.42474 | 19987 ft | 397 kts | 262° |
| 2026-04-30 07:37 | 51.79594 | 2.38062 | 19467 ft | 394 kts | 262° |
| 2026-04-30 07:37 | 51.79279 | 2.33618 | 18942 ft | 392 kts | 262° |
| 2026-04-30 07:37 | 51.78971 | 2.29310 | 18407 ft | 390 kts | 262° |
| 2026-04-30 07:38 | 51.78662 | 2.24986 | 17880 ft | 386 kts | 262° |
| 2026-04-30 07:38 | 51.78380 | 2.20699 | 17367 ft | 382 kts | 263° |
| 2026-04-30 07:38 | 51.78146 | 2.16433 | 16871 ft | 380 kts | 263° |
| 2026-04-30 07:38 | 51.77882 | 2.12197 | 16371 ft | 378 kts | 262° |
| 2026-04-30 07:39 | 51.77623 | 2.07986 | 15875 ft | 376 kts | 263° |
| 2026-04-30 07:39 | 51.77378 | 2.03792 | 15380 ft | 374 kts | 263° |
| 2026-04-30 07:39 | 51.77134 | 1.99625 | 14890 ft | 371 kts | 262° |
| 2026-04-30 07:39 | 51.76883 | 1.95493 | 14401 ft | 368 kts | 262° |
| 2026-04-30 07:40 | 51.76634 | 1.91393 | 13891 ft | 366 kts | 262° |
| 2026-04-30 07:40 | 51.76386 | 1.87328 | 13403 ft | 362 kts | 262° |
| 2026-04-30 07:40 | 51.76141 | 1.83307 | 12928 ft | 359 kts | 262° |
| 2026-04-30 07:40 | 51.75893 | 1.79304 | 12453 ft | 357 kts | 262° |
| 2026-04-30 07:41 | 51.75647 | 1.75324 | 11982 ft | 356 kts | 262° |
| 2026-04-30 07:41 | 51.75407 | 1.71438 | 11521 ft | 336 kts | 262° |
| 2026-04-30 07:41 | 51.75181 | 1.67796 | 11086 ft | 319 kts | 261° |
| 2026-04-30 07:41 | 51.74959 | 1.64282 | 10676 ft | 311 kts | 262° |
| 2026-04-30 07:42 | 51.75028 | 1.60816 | 10409 ft | 307 kts | 277° |
| 2026-04-30 07:42 | 51.75341 | 1.58572 | 10395 ft | 313 kts | 285° |
| 2026-04-30 07:42 | 51.76314 | 1.54132 | 10397 ft | 315 kts | 288° |
| 2026-04-30 07:42 | 51.76792 | 1.51921 | 10397 ft | 315 kts | 288° |
| 2026-04-30 07:43 | 51.77518 | 1.48584 | 10392 ft | 316 kts | 288° |
| 2026-04-30 07:43 | 51.78250 | 1.45236 | 10385 ft | 317 kts | 288° |
| 2026-04-30 07:43 | 51.78983 | 1.41883 | 10378 ft | 316 kts | 288° |
| 2026-04-30 07:43 | 51.79709 | 1.38543 | 10369 ft | 315 kts | 288° |
| 2026-04-30 07:44 | 51.80435 | 1.35199 | 10361 ft | 315 kts | 288° |
| 2026-04-30 07:44 | 51.81158 | 1.31860 | 10357 ft | 315 kts | 288° |
| 2026-04-30 07:44 | 51.81883 | 1.28515 | 10353 ft | 316 kts | 288° |
| 2026-04-30 07:44 | 51.82607 | 1.25162 | 10345 ft | 316 kts | 288° |
| 2026-04-30 07:45 | 51.83330 | 1.21822 | 10341 ft | 315 kts | 288° |
| 2026-04-30 07:45 | 51.84048 | 1.18479 | 10339 ft | 315 kts | 288° |
| 2026-04-30 07:45 | 51.84772 | 1.15135 | 10333 ft | 315 kts | 289° |
| 2026-04-30 07:45 | 51.85717 | 1.11934 | 10319 ft | 316 kts | 297° |
| 2026-04-30 07:46 | 51.86717 | 1.08762 | 10319 ft | 316 kts | 296° |
| 2026-04-30 07:46 | 51.87686 | 1.05580 | 10316 ft | 314 kts | 295° |
| 2026-04-30 07:46 | 51.88655 | 1.02412 | 10320 ft | 314 kts | 296° |
| 2026-04-30 07:46 | 51.89633 | 0.99243 | 10317 ft | 315 kts | 296° |
| 2026-04-30 07:47 | 51.90611 | 0.96063 | 10319 ft | 315 kts | 295° |
| 2026-04-30 07:47 | 51.91587 | 0.92883 | 10319 ft | 316 kts | 295° |
| 2026-04-30 07:47 | 51.92562 | 0.89695 | 10320 ft | 315 kts | 295° |
| 2026-04-30 07:47 | 51.93534 | 0.86519 | 10320 ft | 314 kts | 295° |
| 2026-04-30 07:48 | 51.94507 | 0.83341 | 10322 ft | 315 kts | 295° |
| 2026-04-30 07:48 | 51.95476 | 0.80163 | 10323 ft | 314 kts | 295° |
| 2026-04-30 07:48 | 51.96443 | 0.76986 | 10319 ft | 313 kts | 295° |
| 2026-04-30 07:48 | 51.97407 | 0.73823 | 10318 ft | 313 kts | 295° |
| 2026-04-30 07:49 | 51.98373 | 0.70651 | 10319 ft | 314 kts | 295° |
| 2026-04-30 07:49 | 51.99337 | 0.67466 | 10320 ft | 315 kts | 295° |
| 2026-04-30 07:49 | 52.00301 | 0.64283 | 10318 ft | 314 kts | 295° |
| 2026-04-30 07:49 | 52.01135 | 0.61033 | 10295 ft | 312 kts | 284° |
| 2026-04-30 07:50 | 52.01460 | 0.57550 | 9975 ft | 311 kts | 269° |
| 2026-04-30 07:50 | 52.01338 | 0.54088 | 9631 ft | 305 kts | 261° |
| 2026-04-30 07:50 | 52.01166 | 0.50654 | 9299 ft | 305 kts | 262° |
| 2026-04-30 07:50 | 52.01010 | 0.47218 | 8962 ft | 305 kts | 262° |
| 2026-04-30 07:51 | 52.00848 | 0.43800 | 8638 ft | 303 kts | 262° |
| 2026-04-30 07:51 | 52.00681 | 0.40399 | 8339 ft | 301 kts | 262° |
| 2026-04-30 07:51 | 52.00517 | 0.37043 | 8298 ft | 299 kts | 262° |
| 2026-04-30 07:51 | 52.00353 | 0.33669 | 8304 ft | 300 kts | 262° |
| 2026-04-30 07:52 | 52.00186 | 0.30278 | 8187 ft | 305 kts | 262° |
| 2026-04-30 07:52 | 52.00014 | 0.26831 | 7717 ft | 305 kts | 262° |
| 2026-04-30 07:52 | 51.99849 | 0.23431 | 7227 ft | 300 kts | 262° |
| 2026-04-30 07:52 | 51.99683 | 0.20075 | 6745 ft | 297 kts | 261° |
| 2026-04-30 07:53 | 51.99514 | 0.16742 | 6299 ft | 294 kts | 261° |
| 2026-04-30 07:53 | 51.99347 | 0.13455 | 6061 ft | 292 kts | 261° |
| 2026-04-30 07:53 | 51.99180 | 0.10170 | 6034 ft | 293 kts | 261° |
| 2026-04-30 07:53 | 51.98951 | 0.06893 | 6027 ft | 290 kts | 253° |
| 2026-04-30 07:54 | 51.98277 | 0.03831 | 5908 ft | 288 kts | 238° |
| 2026-04-30 07:54 | 51.97391 | 0.00945 | 5737 ft | 285 kts | 238° |
| 2026-04-30 07:54 | 51.96548 | -0.01886 | 5552 ft | 269 kts | 238° |
| 2026-04-30 07:54 | 51.95755 | -0.04544 | 5374 ft | 257 kts | 237° |
| 2026-04-30 07:55 | 51.94970 | -0.07117 | 5189 ft | 253 kts | 237° |
| 2026-04-30 07:55 | 51.94195 | -0.09655 | 5026 ft | 250 kts | 237° |
| 2026-04-30 07:55 | 51.93438 | -0.12162 | 4864 ft | 251 kts | 237° |
| 2026-04-30 07:55 | 51.92667 | -0.14708 | 4688 ft | 251 kts | 237° |
| 2026-04-30 07:56 | 51.91902 | -0.17230 | 4529 ft | 248 kts | 237° |
| 2026-04-30 07:56 | 51.91146 | -0.19720 | 4366 ft | 246 kts | 237° |
| 2026-04-30 07:56 | 51.90391 | -0.22205 | 4202 ft | 247 kts | 237° |
| 2026-04-30 07:56 | 51.89630 | -0.24708 | 4042 ft | 248 kts | 238° |
| 2026-04-30 07:57 | 51.89099 | -0.27368 | 3994 ft | 248 kts | 250° |
| 2026-04-30 07:57 | 51.88650 | -0.30081 | 4008 ft | 250 kts | 248° |
| 2026-04-30 07:57 | 51.88165 | -0.32783 | 4010 ft | 251 kts | 248° |
| 2026-04-30 07:57 | 51.87689 | -0.35506 | 4010 ft | 252 kts | 249° |
| 2026-04-30 07:58 | 51.87218 | -0.38250 | 4008 ft | 254 kts | 249° |
| 2026-04-30 07:58 | 51.86747 | -0.40997 | 4010 ft | 252 kts | 249° |
| 2026-04-30 07:58 | 51.86272 | -0.43715 | 4002 ft | 251 kts | 248° |
| 2026-04-30 07:58 | 51.85797 | -0.46437 | 4000 ft | 251 kts | 249° |
| 2026-04-30 07:59 | 51.85324 | -0.49141 | 3999 ft | 244 kts | 246° |
| 2026-04-30 07:59 | 51.84632 | -0.51463 | 3986 ft | 217 kts | 229° |
| 2026-04-30 07:59 | 51.83718 | -0.53237 | 3979 ft | 199 kts | 214° |
| 2026-04-30 08:00 | 51.81490 | -0.55589 | 3703 ft | 188 kts | 200° |
| 2026-04-30 08:00 | 51.80358 | -0.56620 | 3526 ft | 186 kts | 201° |
| 2026-04-30 08:00 | 51.79267 | -0.57724 | 3301 ft | 191 kts | 217° |
| 2026-04-30 08:00 | 51.78763 | -0.59767 | 3132 ft | 210 kts | 266° |
| 2026-04-30 08:01 | 51.79324 | -0.61931 | 2994 ft | 213 kts | 318° |
| 2026-04-30 08:01 | 51.80615 | -0.62807 | 2997 ft | 198 kts | 8° |
| 2026-04-30 08:01 | 51.81777 | -0.62026 | 3003 ft | 177 kts | 49° |
| 2026-04-30 08:01 | 51.82812 | -0.60803 | 3008 ft | 183 kts | 50° |
| 2026-04-30 08:02 | 51.83897 | -0.57401 | 2958 ft | 172 kts | 79° |
| 2026-04-30 08:02 | 51.84224 | -0.55577 | 2737 ft | 166 kts | 81° |
| 2026-04-30 08:03 | 51.84826 | -0.52138 | 2298 ft | 154 kts | 82° |
| 2026-04-30 08:03 | 51.85315 | -0.49321 | 1937 ft | 110 kts | 85° |
| 2026-04-30 08:03 | 51.85518 | -0.48146 | 1798 ft | 109 kts | 84° |
| 2026-04-30 08:04 | 51.85724 | -0.46938 | 1649 ft | 112 kts | 81° |
| 2026-04-30 08:04 | 51.85936 | -0.45715 | 1485 ft | 113 kts | 81° |
| 2026-04-30 08:04 | 51.86147 | -0.44499 | 1330 ft | 113 kts | 80° |
| 2026-04-30 08:04 | 51.86354 | -0.43287 | 1176 ft | 112 kts | 77° |
| 2026-04-30 08:05 | 51.86556 | -0.42063 | 1008 ft | 110 kts | 80° |
| 2026-04-30 08:05 | 51.86747 | -0.40869 | 855 ft | 110 kts | 78° |
| 2026-04-30 08:05 | 51.86966 | -0.39704 | 696 ft | 107 kts | 76° |
| 2026-04-30 08:05 | 51.87161 | -0.38593 | 577 ft | 101 kts | 79° |
| 2026-04-30 08:06 | 51.87350 | -0.37495 | 529 ft | 93 kts | 77° |
| 2026-04-30 08:06 | 51.87460 | -0.36849 | 517 ft | 13 kts | 73° |
| 2026-04-30 08:06 | 51.87477 | -0.36822 | 518 ft | 3 kts | 339° |
| 2026-04-30 08:06 | 51.87498 | -0.36900 | 517 ft | 9 kts | 310° |
| 2026-04-30 08:07 | 51.87570 | -0.36965 | 517 ft | 13 kts | 325° |
| 2026-04-30 08:07 | 51.87587 | -0.36993 | 517 ft | 0 kts | 309° |
| 2026-04-30 08:08 | 51.87637 | -0.36975 | 516 ft | 17 kts | 34° |
| 2026-04-30 08:08 | 51.87791 | -0.37006 | 516 ft | 30 kts | 341° |
| 2026-04-30 08:08 | 51.88030 | -0.37134 | 516 ft | 40 kts | 342° |
| 2026-04-30 08:08 | 51.88247 | -0.37263 | 516 ft | 25 kts | 314° |
| 2026-04-30 08:09 | 51.88225 | -0.37532 | 517 ft | 27 kts | 248° |
| 2026-04-30 08:09 | 51.88128 | -0.37789 | 517 ft | 28 kts | 229° |
| 2026-04-30 08:09 | 51.87967 | -0.37988 | 518 ft | 29 kts | 211° |
| 2026-04-30 08:09 | 51.87827 | -0.37957 | 518 ft | 13 kts | 138° |
| 2026-04-30 08:10 | 51.87781 | -0.37945 | 518 ft | 6 kts | 210° |
| 2026-04-30 08:10 | 51.87752 | -0.37980 | 518 ft | 0 kts | 217° |